createdAt,value
2018-07-01T14:47:36.010Z,26.70
2018-07-01T14:50:04.610Z,26.90
2018-07-01T14:52:33.462Z,27.00
2018-07-01T14:55:01.610Z,27.00
2018-07-01T14:57:29.749Z,26.50
2018-07-01T14:59:57.877Z,26.40
2018-07-01T15:02:26.025Z,26.50
2018-07-01T15:04:54.169Z,26.30
2018-07-01T15:07:22.312Z,26.50
2018-07-01T15:09:50.469Z,26.60
2018-07-01T15:12:18.606Z,26.70
2018-07-01T15:14:46.746Z,26.80
2018-07-01T15:17:15.755Z,26.40
2018-07-01T15:19:43.893Z,26.60
2018-07-01T15:22:12.114Z,26.50
2018-07-01T15:24:40.188Z,26.50
2018-07-01T15:27:08.308Z,26.50
2018-07-01T15:29:36.452Z,26.30
2018-07-01T15:32:04.621Z,26.40
2018-07-01T15:34:32.766Z,26.40
2018-07-01T15:37:00.922Z,26.20
2018-07-01T15:39:29.121Z,26.40
2018-07-01T15:41:57.251Z,26.30
2018-07-01T15:44:25.387Z,26.20
2018-07-01T15:46:53.566Z,26.20
2018-07-01T15:49:23.007Z,26.40
2018-07-01T15:51:51.505Z,26.40
2018-07-01T15:54:19.645Z,26.20
2018-07-01T15:56:47.782Z,26.30
2018-07-01T15:59:15.930Z,26.30
2018-07-01T16:01:44.042Z,26.30
2018-07-01T16:04:12.161Z,26.20
2018-07-01T16:06:40.292Z,26.00
2018-07-01T16:09:09.752Z,26.10
2018-07-01T16:11:37.907Z,26.00
2018-07-01T16:14:06.065Z,25.90
2018-07-01T16:16:34.421Z,25.80
2018-07-01T16:19:03.068Z,25.90
2018-07-01T16:21:31.269Z,25.80
2018-07-01T16:23:59.408Z,25.90
2018-07-01T16:26:32.813Z,25.80
2018-07-01T16:29:01.648Z,25.60
2018-07-01T16:31:31.120Z,25.60
2018-07-01T16:33:59.248Z,25.50
2018-07-01T16:36:28.704Z,25.40
2018-07-01T16:38:56.824Z,25.40
2018-07-01T16:41:25.072Z,25.40
2018-07-01T16:43:53.213Z,25.40
2018-07-01T16:46:21.342Z,25.40
2018-07-01T16:48:50.206Z,25.40
2018-07-01T16:51:29.644Z,25.30
2018-07-01T16:53:57.937Z,25.40
2018-07-01T16:56:26.952Z,25.30
2018-07-01T16:58:55.112Z,25.30
2018-07-01T17:01:23.249Z,25.10
2018-07-01T17:03:51.377Z,25.10
2018-07-01T17:06:19.530Z,25.10
2018-07-01T17:08:47.693Z,25.20
2018-07-01T17:11:15.842Z,25.10
2018-07-01T17:13:44.041Z,25.10
2018-07-01T17:16:12.250Z,25.10
2018-07-01T17:18:40.397Z,25.20
2018-07-01T17:21:10.977Z,25.20
2018-07-01T17:23:39.113Z,25.10
2018-07-01T17:26:07.232Z,25.00
2018-07-01T17:28:35.388Z,25.00
2018-07-01T17:31:08.785Z,25.00
2018-07-01T17:33:36.921Z,25.00
2018-07-01T17:36:05.520Z,25.00
2018-07-01T17:38:33.801Z,24.90
2018-07-01T17:41:01.953Z,24.90
2018-07-01T17:43:30.078Z,24.90
2018-07-01T17:45:58.217Z,24.80
2018-07-01T17:48:26.383Z,24.80
2018-07-01T17:50:54.476Z,24.80
2018-07-01T17:53:35.386Z,24.70
2018-07-01T17:56:03.484Z,24.70
2018-07-01T17:58:31.609Z,24.60
2018-07-01T18:00:59.749Z,24.60
2018-07-01T18:03:27.913Z,24.60
2018-07-01T18:05:56.029Z,24.50
2018-07-01T18:08:24.177Z,24.50
2018-07-01T18:10:52.293Z,24.50
2018-07-01T18:13:20.416Z,24.40
2018-07-01T18:15:48.569Z,24.40
2018-07-01T18:18:16.939Z,24.30
2018-07-01T18:20:45.057Z,24.30
2018-07-01T18:23:44.885Z,24.20
2018-07-01T18:25:41.373Z,24.20
2018-07-01T18:28:18.877Z,24.10
2018-07-01T18:30:37.657Z,24.10
2018-07-01T18:33:06.338Z,24.10
2018-07-01T18:35:34.460Z,24.00
2018-07-01T18:38:02.873Z,23.90
2018-07-01T18:40:30.997Z,23.90
2018-07-01T18:42:59.139Z,23.80
2018-07-01T18:45:27.285Z,23.70
2018-07-01T18:47:55.669Z,23.70
2018-07-01T18:50:23.824Z,23.70
2018-07-01T18:52:53.180Z,23.60
2018-07-01T18:55:31.696Z,23.50
2018-07-01T18:57:59.987Z,23.50
2018-07-01T19:00:28.110Z,23.40
2018-07-01T19:02:56.268Z,23.30
2018-07-01T19:05:24.401Z,23.30
2018-07-01T19:07:52.549Z,23.20
2018-07-01T19:10:20.760Z,23.10
2018-07-01T19:12:48.896Z,23.00
2018-07-01T19:15:17.052Z,23.00
2018-07-01T19:17:45.295Z,22.90
2018-07-01T19:20:13.641Z,22.80
2018-07-01T19:22:41.809Z,22.80
2018-07-01T19:25:10.145Z,22.70
2018-07-01T19:27:38.310Z,22.60
2018-07-01T19:30:06.705Z,22.50
2018-07-01T19:32:34.838Z,22.40
2018-07-01T19:35:02.969Z,22.40
2018-07-01T19:37:31.113Z,22.30
2018-07-01T19:39:59.240Z,22.20
2018-07-01T19:42:28.299Z,22.10
2018-07-01T19:44:56.300Z,22.00
2018-07-01T19:47:24.436Z,21.90
2018-07-01T19:49:52.577Z,21.90
2018-07-01T19:52:20.730Z,21.90
2018-07-01T19:54:48.847Z,21.70
2018-07-01T19:57:17.521Z,21.70
2018-07-01T19:59:45.772Z,21.40
2018-07-01T20:02:14.005Z,21.30
2018-07-01T20:04:42.457Z,21.20
2018-07-01T20:07:10.628Z,21.00
2018-07-01T20:09:38.768Z,20.90
2018-07-01T20:12:06.933Z,20.80
2018-07-01T20:14:35.050Z,20.70
2018-07-01T20:17:03.220Z,20.60
2018-07-01T20:19:31.377Z,20.60
2018-07-01T20:21:59.525Z,20.60
2018-07-01T20:24:27.645Z,20.60
2018-07-01T20:26:57.102Z,20.50
2018-07-01T20:29:25.233Z,20.50
2018-07-01T20:31:53.365Z,20.40
2018-07-01T20:35:12.757Z,20.40
2018-07-01T20:37:40.916Z,20.50
